createdAt,value
2022-12-08T00:01:26.573Z,16.43
2022-12-08T00:02:58.212Z,16.85
2022-12-08T00:04:29.858Z,17.65
2022-12-08T00:06:01.135Z,17.77
2022-12-08T00:07:32.460Z,16.83
2022-12-08T00:09:03.882Z,17.33
2022-12-08T00:10:48.464Z,14.61
2022-12-08T00:12:21.015Z,18.05
2022-12-08T00:13:52.296Z,17.59
2022-12-08T00:15:23.764Z,18.05
2022-12-08T00:16:55.395Z,19.25
2022-12-08T00:18:26.726Z,20.62
2022-12-08T00:19:58.047Z,20.28
2022-12-08T00:21:29.401Z,21.04
2022-12-08T00:23:01.020Z,16.71
2022-12-08T00:24:34.101Z,20.00
2022-12-08T00:26:05.552Z,22.31
2022-12-08T00:27:38.416Z,22.54
2022-12-08T00:29:14.489Z,21.86
2022-12-08T00:30:48.574Z,21.56
2022-12-08T00:32:20.043Z,25.36
2022-12-08T00:33:51.481Z,23.17
2022-12-08T00:35:22.706Z,29.22
2022-12-08T00:36:53.986Z,27.42
2022-12-08T00:38:25.714Z,26.92
2022-12-08T00:39:57.109Z,26.55
2022-12-08T00:41:28.635Z,24.55
2022-12-08T00:42:59.982Z,25.86
2022-12-08T00:44:31.387Z,24.30
2022-12-08T00:46:02.699Z,24.79
2022-12-08T00:47:34.109Z,25.72
2022-12-08T00:49:05.412Z,25.02
2022-12-08T00:50:37.924Z,23.45
2022-12-08T00:52:09.493Z,23.61
2022-12-08T00:53:40.942Z,24.70
2022-12-08T00:55:12.530Z,22.16
2022-12-08T00:56:43.952Z,22.57
2022-12-08T00:58:15.413Z,24.95
2022-12-08T00:59:47.060Z,22.87
2022-12-08T01:01:18.716Z,21.88
2022-12-08T01:02:50.413Z,22.31
2022-12-08T01:04:21.903Z,23.51
2022-12-08T01:05:53.200Z,25.58
2022-12-08T01:07:24.434Z,21.59
2022-12-08T01:08:56.102Z,22.35
2022-12-08T01:10:27.628Z,24.09
2022-12-08T01:11:59.236Z,16.03
2022-12-08T01:13:30.494Z,16.86
2022-12-08T01:15:02.990Z,21.70
2022-12-08T01:16:34.625Z,20.91
2022-12-08T01:18:05.995Z,22.41
2022-12-08T01:19:37.328Z,21.64
2022-12-08T01:21:08.873Z,20.92
2022-12-08T01:22:40.276Z,21.57
2022-12-08T01:24:11.514Z,20.66
2022-12-08T01:25:43.140Z,18.46
2022-12-08T01:27:14.700Z,17.99
2022-12-08T01:28:46.205Z,18.89
2022-12-08T01:30:17.545Z,20.40
2022-12-08T01:31:48.859Z,21.69
2022-12-08T01:33:20.390Z,19.70
2022-12-08T01:34:52.108Z,19.83
2022-12-08T01:36:23.763Z,21.10
2022-12-08T01:37:55.146Z,20.34
2022-12-08T01:39:26.437Z,19.56
2022-12-08T01:40:58.083Z,17.99
2022-12-08T01:42:29.299Z,19.38
2022-12-08T01:44:00.807Z,19.25
2022-12-08T01:45:32.119Z,20.00
2022-12-08T01:47:03.465Z,16.57
2022-12-08T01:48:34.823Z,19.97
2022-12-08T01:50:06.604Z,18.11
2022-12-08T01:51:38.572Z,19.36
2022-12-08T01:53:09.993Z,17.05
2022-12-08T01:54:41.567Z,20.77
2022-12-08T01:56:12.838Z,20.17
2022-12-08T01:57:44.324Z,20.92
2022-12-08T01:59:15.746Z,21.55
2022-12-08T02:00:48.578Z,19.86
2022-12-08T02:02:19.977Z,21.72
2022-12-08T02:03:51.516Z,19.76
2022-12-08T02:05:22.931Z,20.31
2022-12-08T02:06:54.363Z,18.69
2022-12-08T02:08:25.989Z,18.62
2022-12-08T02:09:57.494Z,18.11
2022-12-08T02:11:28.916Z,19.30
2022-12-08T02:13:00.375Z,17.97
2022-12-08T02:14:31.596Z,18.15
2022-12-08T02:16:03.018Z,19.41
2022-12-08T02:17:34.512Z,18.86
2022-12-08T02:19:29.217Z,18.34
2022-12-08T02:21:02.992Z,18.71
2022-12-08T02:22:34.354Z,21.63
2022-12-08T02:24:05.726Z,19.77
2022-12-08T02:25:37.180Z,18.24
2022-12-08T02:27:08.393Z,19.82
2022-12-08T02:28:39.653Z,18.58
2022-12-08T02:30:10.922Z,19.55
2022-12-08T02:31:42.263Z,22.64
2022-12-08T02:33:14.020Z,20.64
2022-12-08T02:34:46.205Z,21.38
2022-12-08T02:36:17.827Z,20.73
2022-12-08T02:37:49.471Z,19.79
2022-12-08T02:39:20.809Z,22.89
2022-12-08T02:40:52.408Z,19.47
2022-12-08T02:42:23.661Z,20.45
2022-12-08T02:43:55.226Z,18.24
2022-12-08T02:45:26.467Z,18.30
2022-12-08T02:46:57.868Z,19.54
2022-12-08T02:48:29.606Z,22.68
2022-12-08T02:50:01.133Z,19.15
2022-12-08T02:51:32.434Z,20.61
2022-12-08T02:54:35.662Z,17.30
2022-12-08T02:56:07.595Z,19.95
2022-12-08T02:57:39.116Z,24.37
2022-12-08T02:59:10.283Z,22.53
2022-12-08T03:00:41.947Z,19.86
2022-12-08T03:02:13.145Z,20.48
2022-12-08T03:03:44.768Z,23.05
2022-12-08T03:05:16.171Z,22.33
2022-12-08T03:06:47.378Z,20.49
2022-12-08T03:08:18.763Z,21.99
2022-12-08T03:09:50.161Z,20.42
2022-12-08T03:11:21.361Z,21.59
2022-12-08T03:12:52.641Z,21.29
2022-12-08T03:14:24.118Z,19.89
2022-12-08T03:16:04.292Z,21.14
2022-12-08T03:17:36.121Z,17.48
2022-12-08T03:19:07.967Z,15.35
2022-12-08T03:20:59.014Z,18.89
2022-12-08T03:22:30.856Z,18.36
2022-12-08T03:24:02.570Z,17.73
2022-12-08T03:25:34.023Z,17.67
2022-12-08T03:27:06.868Z,21.58
2022-12-08T03:28:38.310Z,20.11
2022-12-08T03:30:09.471Z,19.67
2022-12-08T03:31:41.064Z,17.16
2022-12-08T03:33:12.380Z,15.53
2022-12-08T03:34:43.740Z,18.62
2022-12-08T03:36:15.461Z,14.16
2022-12-08T03:37:46.721Z,17.88
2022-12-08T03:39:18.230Z,14.41
2022-12-08T03:40:49.523Z,20.45
2022-12-08T03:42:20.764Z,20.99
2022-12-08T03:43:52.212Z,21.10
2022-12-08T03:45:23.508Z,17.16
2022-12-08T03:46:55.046Z,20.59
2022-12-08T03:48:26.494Z,21.61
2022-12-08T03:49:57.905Z,18.51
2022-12-08T03:51:29.252Z,21.05
2022-12-08T03:53:00.449Z,21.80
2022-12-08T03:54:32.105Z,18.59
2022-12-08T03:56:03.548Z,18.40
2022-12-08T03:57:34.782Z,15.48
2022-12-08T03:59:06.054Z,19.54
2022-12-08T04:00:37.503Z,21.01
2022-12-08T04:02:08.890Z,17.79
2022-12-08T04:03:40.798Z,20.87
2022-12-08T04:05:12.078Z,19.19
2022-12-08T04:06:43.556Z,19.39
2022-12-08T04:08:15.060Z,17.68
2022-12-08T04:09:46.300Z,20.60
2022-12-08T04:11:17.700Z,19.91
2022-12-08T04:12:49.330Z,19.09
2022-12-08T04:14:20.690Z,21.11
2022-12-08T04:15:51.975Z,20.30
2022-12-08T04:17:23.414Z,18.84
2022-12-08T04:18:55.314Z,19.24
2022-12-08T04:20:26.636Z,16.91
2022-12-08T04:21:58.320Z,18.79
2022-12-08T04:23:29.887Z,19.61
2022-12-08T04:25:01.204Z,19.28
2022-12-08T04:26:32.564Z,19.42
2022-12-08T04:28:03.940Z,17.05
2022-12-08T04:29:35.495Z,18.85
2022-12-08T04:31:06.915Z,18.66
2022-12-08T04:32:41.637Z,18.02
2022-12-08T04:34:15.719Z,16.55
2022-12-08T04:35:47.111Z,19.01
2022-12-08T04:37:18.721Z,16.59
2022-12-08T04:38:50.539Z,13.83
2022-12-08T04:40:23.311Z,17.57
2022-12-08T04:41:54.939Z,14.17
2022-12-08T04:43:26.324Z,19.16
2022-12-08T04:44:57.669Z,17.02
2022-12-08T04:46:29.315Z,18.96
2022-12-08T04:48:46.420Z,19.25
2022-12-08T04:50:19.599Z,16.65
2022-12-08T04:51:50.942Z,19.24
2022-12-08T04:53:22.399Z,16.80
2022-12-08T04:54:53.584Z,14.24
2022-12-08T04:56:25.152Z,11.99
2022-12-08T04:57:56.502Z,13.21
2022-12-08T04:59:27.917Z,16.93
2022-12-08T05:00:59.494Z,14.78
2022-12-08T05:02:31.171Z,16.66
2022-12-08T05:04:02.688Z,12.65
2022-12-08T05:05:34.025Z,12.08
2022-12-08T05:07:05.401Z,16.27
2022-12-08T05:08:36.790Z,13.56
2022-12-08T05:10:08.240Z,15.95
2022-12-08T05:11:43.909Z,16.05
2022-12-08T05:13:18.273Z,14.83
2022-12-08T05:14:49.842Z,13.13
2022-12-08T05:16:21.076Z,14.18
2022-12-08T05:17:53.277Z,13.93
2022-12-08T05:19:24.474Z,12.58
2022-12-08T05:20:55.787Z,12.46
2022-12-08T05:22:27.436Z,13.66
2022-12-08T05:23:58.861Z,10.85
2022-12-08T05:25:30.594Z,13.23
2022-12-08T05:27:01.807Z,11.05
2022-12-08T05:28:41.233Z,10.48
2022-12-08T05:30:13.875Z,12.02
2022-12-08T05:31:45.310Z,10.38
2022-12-08T05:33:16.835Z,10.59
2022-12-08T05:35:14.415Z,9.16
2022-12-08T05:36:46.800Z,11.60
2022-12-08T05:38:18.635Z,11.92
2022-12-08T05:39:50.296Z,13.72
2022-12-08T05:41:21.668Z,13.53
2022-12-08T05:42:53.312Z,14.06
2022-12-08T05:44:25.656Z,13.61
2022-12-08T05:45:59.463Z,14.54
2022-12-08T05:47:35.810Z,13.14
2022-12-08T05:49:07.818Z,8.11
2022-12-08T05:50:39.818Z,10.56
2022-12-08T05:52:12.615Z,12.61
2022-12-08T05:53:44.206Z,11.45
2022-12-08T05:55:15.743Z,13.69
2022-12-08T05:56:47.689Z,14.15
2022-12-08T05:58:19.191Z,12.35
2022-12-08T05:59:51.320Z,12.76
2022-12-08T06:01:27.672Z,13.62
2022-12-08T06:03:09.759Z,13.93
2022-12-08T06:04:45.416Z,11.96
2022-12-08T06:06:16.810Z,15.47
2022-12-08T06:07:48.138Z,14.98
2022-12-08T06:09:19.497Z,15.50
2022-12-08T06:10:51.156Z,14.94
2022-12-08T06:12:22.526Z,15.39
2022-12-08T06:13:54.002Z,14.56
2022-12-08T06:15:40.440Z,13.42
2022-12-08T06:17:12.046Z,14.46
2022-12-08T06:18:52.169Z,16.17
2022-12-08T06:20:23.781Z,13.33
2022-12-08T06:21:55.250Z,15.27
2022-12-08T06:23:32.087Z,14.08
2022-12-08T06:25:07.185Z,13.93
2022-12-08T06:26:46.371Z,16.00
2022-12-08T06:28:17.864Z,15.58
2022-12-08T06:29:50.593Z,16.74
2022-12-08T06:31:23.456Z,17.76
2022-12-08T06:33:00.600Z,15.49
2022-12-08T06:34:39.483Z,16.18
2022-12-08T06:36:11.045Z,14.55
2022-12-08T06:37:42.600Z,14.32
2022-12-08T06:39:13.965Z,15.93
2022-12-08T06:40:45.342Z,15.95
2022-12-08T06:42:18.134Z,16.41
2022-12-08T06:43:49.881Z,15.33
2022-12-08T06:45:21.295Z,14.26
2022-12-08T06:46:53.104Z,15.82
2022-12-08T06:48:24.532Z,15.35
2022-12-08T06:50:01.833Z,16.41
2022-12-08T06:51:33.790Z,15.36
2022-12-08T06:53:10.647Z,15.98
2022-12-08T06:54:42.253Z,14.68
2022-12-08T06:56:14.522Z,13.82
2022-12-08T06:57:46.063Z,13.86
2022-12-08T06:59:17.608Z,14.73
2022-12-08T07:03:03.174Z,11.21
2022-12-08T07:04:34.847Z,11.95
2022-12-08T07:06:06.207Z,10.28
2022-12-08T07:07:37.558Z,11.53
2022-12-08T07:09:10.001Z,11.84
2022-12-08T07:10:41.607Z,12.07
2022-12-08T07:12:12.826Z,11.34
2022-12-08T07:13:44.063Z,12.64
2022-12-08T07:15:15.688Z,11.32
2022-12-08T07:16:47.251Z,12.72
2022-12-08T07:18:19.033Z,13.86
2022-12-08T07:19:50.544Z,12.51
2022-12-08T07:21:22.309Z,14.79
2022-12-08T07:22:53.849Z,15.24
2022-12-08T07:24:25.335Z,14.03
2022-12-08T07:25:56.651Z,15.52
2022-12-08T07:27:28.055Z,9.21
2022-12-08T07:28:59.668Z,10.27
2022-12-08T07:30:30.995Z,11.18
2022-12-08T07:32:02.626Z,12.19
2022-12-08T07:33:33.950Z,12.42
2022-12-08T07:35:05.227Z,12.63
2022-12-08T07:36:36.642Z,12.60
2022-12-08T07:38:08.143Z,10.36
2022-12-08T07:39:39.762Z,11.10
2022-12-08T07:41:11.145Z,13.02
2022-12-08T07:42:42.583Z,12.08
2022-12-08T07:44:14.009Z,12.95
2022-12-08T07:45:45.403Z,13.22
2022-12-08T07:47:16.973Z,13.22
2022-12-08T07:48:48.227Z,12.96
2022-12-08T07:50:19.729Z,10.39
2022-12-08T07:51:50.933Z,11.32
2022-12-08T07:53:22.229Z,11.80
2022-12-08T07:54:53.855Z,12.37
2022-12-08T07:56:25.131Z,12.79
2022-12-08T07:58:01.583Z,11.92
2022-12-08T07:59:33.994Z,11.65
2022-12-08T08:01:05.552Z,12.56
2022-12-08T08:02:37.291Z,13.41
2022-12-08T08:04:08.694Z,11.78
2022-12-08T08:05:40.149Z,10.75
2022-12-08T08:07:12.754Z,12.93
2022-12-08T08:08:44.263Z,12.72
2022-12-08T08:10:20.520Z,12.19
2022-12-08T08:12:22.223Z,10.95
2022-12-08T08:14:01.485Z,13.56
2022-12-08T08:15:32.993Z,14.38
2022-12-08T08:17:04.680Z,13.69
2022-12-08T08:18:36.111Z,14.69
2022-12-08T08:20:07.652Z,12.90
2022-12-08T08:21:45.907Z,14.28
2022-12-08T08:23:17.865Z,13.13
2022-12-08T08:24:49.189Z,13.04
2022-12-08T08:26:20.427Z,11.15
2022-12-08T08:27:51.909Z,12.78
2022-12-08T08:29:23.417Z,11.73
2022-12-08T08:30:55.076Z,12.92
2022-12-08T08:32:26.577Z,12.90
2022-12-08T08:33:58.102Z,11.00
2022-12-08T08:35:29.394Z,12.44
2022-12-08T08:37:00.940Z,14.17
2022-12-08T08:38:32.623Z,11.44
2022-12-08T08:40:04.288Z,11.03
2022-12-08T08:41:35.794Z,9.39
2022-12-08T08:43:07.161Z,11.83
2022-12-08T08:44:38.607Z,14.31
2022-12-08T08:46:09.924Z,9.55
2022-12-08T08:47:41.358Z,8.90
2022-12-08T08:49:13.347Z,12.67
2022-12-08T08:50:44.766Z,13.67
2022-12-08T08:52:16.390Z,14.69
2022-12-08T08:53:48.035Z,13.90
2022-12-08T08:55:19.350Z,14.05
2022-12-08T08:56:51.002Z,9.11
2022-12-08T08:58:22.594Z,8.85
2022-12-08T08:59:55.156Z,8.47
2022-12-08T09:01:28.264Z,8.71
2022-12-08T09:02:59.999Z,8.74
2022-12-08T09:04:31.778Z,8.92
2022-12-08T09:06:03.593Z,10.78
2022-12-08T09:07:35.250Z,11.62
2022-12-08T09:09:06.513Z,10.04
2022-12-08T09:10:37.890Z,11.06
2022-12-08T09:12:09.191Z,13.36
2022-12-08T09:13:40.622Z,11.94
2022-12-08T09:15:11.863Z,12.05
2022-12-08T09:16:43.666Z,11.68
2022-12-08T09:18:15.149Z,12.19
2022-12-08T09:19:47.554Z,12.97
2022-12-08T09:21:19.113Z,12.38
2022-12-08T09:22:50.483Z,13.25
2022-12-08T09:24:21.785Z,12.24
2022-12-08T09:25:53.437Z,10.58
2022-12-08T09:27:24.902Z,10.14
2022-12-08T09:28:56.290Z,11.37
2022-12-08T09:30:27.522Z,10.82
2022-12-08T09:31:58.981Z,12.56
2022-12-08T09:33:32.657Z,12.21
2022-12-08T09:35:04.149Z,11.49
2022-12-08T09:36:35.832Z,11.81
2022-12-08T09:38:07.444Z,10.39
2022-12-08T09:39:38.789Z,8.81
2022-12-08T09:41:10.267Z,7.87
2022-12-08T09:42:41.713Z,9.81
2022-12-08T09:44:13.176Z,10.10
2022-12-08T09:45:44.687Z,11.19
2022-12-08T09:47:17.184Z,9.61
2022-12-08T09:48:48.660Z,9.72
2022-12-08T09:50:19.862Z,10.16
2022-12-08T09:51:51.105Z,9.37
2022-12-08T09:53:22.705Z,9.12
2022-12-08T09:54:54.280Z,8.85
2022-12-08T09:56:25.854Z,10.14
2022-12-08T09:57:57.253Z,6.94
2022-12-08T09:59:28.670Z,9.69
2022-12-08T10:00:59.977Z,10.16
2022-12-08T10:02:31.713Z,9.80
2022-12-08T10:04:03.207Z,11.28
2022-12-08T10:05:34.530Z,11.65
2022-12-08T10:07:06.942Z,10.13
2022-12-08T10:08:38.570Z,9.09
2022-12-08T10:10:10.163Z,9.89
2022-12-08T10:11:41.511Z,10.48
2022-12-08T10:13:12.796Z,10.05
2022-12-08T10:14:49.044Z,11.08
2022-12-08T10:16:26.559Z,11.15
2022-12-08T10:18:00.804Z,8.30
2022-12-08T10:19:32.084Z,7.08
2022-12-08T10:21:03.403Z,8.99
2022-12-08T10:22:38.647Z,8.30
2022-12-08T10:24:13.095Z,9.54
2022-12-08T10:25:44.717Z,10.23
2022-12-08T10:27:16.031Z,10.48
2022-12-08T10:28:47.281Z,10.91
2022-12-08T10:30:18.672Z,10.07
2022-12-08T10:31:50.432Z,8.26
2022-12-08T10:33:21.909Z,10.24
2022-12-08T10:34:56.416Z,10.70
2022-12-08T10:36:28.040Z,11.57
2022-12-08T10:37:59.876Z,12.38
2022-12-08T10:39:31.274Z,9.44
2022-12-08T10:41:02.698Z,9.60
2022-12-08T10:42:34.008Z,12.03
2022-12-08T10:44:05.713Z,12.03
2022-12-08T10:45:36.974Z,12.80
2022-12-08T10:47:08.221Z,13.45
2022-12-08T10:48:39.740Z,15.80
2022-12-08T10:50:11.034Z,11.23
2022-12-08T10:51:42.884Z,12.20
2022-12-08T10:53:14.213Z,12.45
2022-12-08T10:54:45.412Z,11.18
2022-12-08T10:56:16.620Z,10.35
2022-12-08T10:57:48.044Z,10.76
2022-12-08T10:59:19.439Z,11.13
2022-12-08T11:00:51.090Z,12.06
2022-12-08T11:02:22.532Z,12.71
2022-12-08T11:03:53.930Z,13.07
2022-12-08T11:05:30.174Z,13.86
2022-12-08T11:07:39.175Z,13.35
2022-12-08T11:09:13.131Z,13.12
2022-12-08T11:10:44.584Z,12.20
2022-12-08T11:12:15.920Z,11.64
2022-12-08T11:13:47.259Z,13.02
2022-12-08T11:15:18.596Z,12.81
2022-12-08T11:16:50.188Z,13.56
2022-12-08T11:18:22.021Z,13.60
2022-12-08T11:19:53.357Z,12.49
2022-12-08T11:21:24.650Z,11.20
2022-12-08T11:22:56.030Z,11.37
2022-12-08T11:24:27.380Z,11.42
2022-12-08T11:25:58.819Z,11.43
2022-12-08T11:27:35.080Z,11.47
2022-12-08T11:29:06.438Z,10.90
2022-12-08T11:30:38.142Z,12.42
2022-12-08T11:32:10.701Z,12.59
2022-12-08T11:33:43.100Z,11.54
2022-12-08T11:35:14.821Z,10.12
2022-12-08T11:36:46.694Z,11.57
2022-12-08T11:38:21.277Z,9.38
2022-12-08T11:39:53.634Z,10.00
2022-12-08T11:41:24.941Z,11.01
2022-12-08T11:42:56.308Z,9.38
2022-12-08T11:44:27.612Z,9.36
2022-12-08T11:45:59.111Z,8.19
2022-12-08T11:47:30.446Z,7.30
2022-12-08T11:49:06.194Z,10.28
2022-12-08T11:50:38.263Z,11.05
2022-12-08T11:52:09.815Z,10.67
2022-12-08T11:53:41.392Z,9.93
2022-12-08T11:55:12.564Z,11.22
2022-12-08T11:56:43.904Z,11.77
2022-12-08T11:58:15.189Z,11.37
2022-12-08T11:59:46.464Z,10.72
2022-12-08T12:01:22.705Z,10.78
2022-12-08T12:02:54.203Z,11.31
2022-12-08T12:04:25.611Z,11.48
2022-12-08T12:06:12.988Z,12.38
2022-12-08T12:07:50.015Z,12.19
2022-12-08T12:09:21.552Z,12.22
2022-12-08T12:10:53.823Z,13.63
2022-12-08T12:12:25.131Z,13.58
2022-12-08T12:13:56.504Z,13.71
2022-12-08T12:15:27.958Z,13.62
2022-12-08T12:16:59.339Z,13.37
2022-12-08T12:18:36.596Z,13.36
2022-12-08T12:20:08.152Z,13.43
2022-12-08T12:21:39.663Z,14.10
2022-12-08T12:23:11.100Z,14.08
2022-12-08T12:24:42.497Z,15.06
2022-12-08T12:26:13.822Z,14.27
2022-12-08T12:27:45.184Z,14.67
2022-12-08T12:29:16.703Z,14.46
2022-12-08T12:30:48.670Z,14.22
2022-12-08T12:32:20.350Z,13.17
2022-12-08T12:33:51.782Z,13.22
2022-12-08T12:35:27.170Z,13.93
2022-12-08T12:36:59.178Z,13.63
2022-12-08T12:38:30.415Z,13.62
2022-12-08T12:40:01.999Z,14.08
2022-12-08T12:41:33.589Z,13.38
2022-12-08T12:43:04.848Z,14.37
2022-12-08T12:44:36.128Z,13.43
2022-12-08T12:46:07.505Z,13.45
2022-12-08T12:47:38.836Z,12.57
2022-12-08T12:49:10.336Z,11.73
2022-12-08T12:50:41.597Z,12.05
2022-12-08T12:52:12.865Z,12.82
2022-12-08T12:53:44.533Z,13.36
2022-12-08T12:55:15.907Z,13.04
2022-12-08T12:56:47.144Z,13.05
2022-12-08T12:58:18.498Z,12.66
2022-12-08T12:59:54.881Z,12.70
2022-12-08T13:01:27.962Z,13.38
2022-12-08T13:03:04.381Z,12.96
2022-12-08T13:04:45.632Z,12.56
2022-12-08T13:06:16.941Z,12.41
2022-12-08T13:08:08.233Z,12.81
2022-12-08T13:09:55.641Z,13.13
2022-12-08T13:11:27.040Z,13.04
2022-12-08T13:12:58.343Z,12.84
2022-12-08T13:14:29.662Z,13.74
2022-12-08T13:16:07.598Z,12.24
2022-12-08T13:17:44.206Z,12.00
2022-12-08T13:19:40.624Z,12.26
2022-12-08T13:21:21.909Z,12.48
2022-12-08T13:22:53.505Z,12.83
2022-12-08T13:24:25.025Z,13.54
2022-12-08T13:25:56.505Z,13.41
2022-12-08T13:28:03.161Z,13.94
2022-12-08T13:29:46.514Z,13.59
2022-12-08T13:31:19.153Z,14.19
2022-12-08T13:33:17.128Z,15.66
2022-12-08T13:34:48.922Z,15.12
2022-12-08T13:36:20.309Z,15.63
2022-12-08T13:37:55.183Z,15.71
2022-12-08T13:39:46.867Z,15.21
2022-12-08T13:41:21.046Z,15.31
2022-12-08T13:43:09.237Z,16.38
2022-12-08T13:47:31.650Z,16.08
2022-12-08T13:56:37.461Z,14.88
2022-12-08T13:58:23.543Z,15.30
2022-12-08T13:59:55.010Z,15.22
2022-12-08T14:01:27.696Z,14.88
2022-12-08T14:02:59.136Z,15.34
2022-12-08T14:04:48.005Z,15.14
2022-12-08T14:06:47.317Z,14.53
2022-12-08T14:09:01.032Z,14.50
2022-12-08T14:10:33.858Z,14.22
2022-12-08T14:12:42.381Z,13.81
2022-12-08T14:14:14.450Z,14.88
2022-12-08T14:15:51.139Z,16.59
2022-12-08T14:17:27.892Z,15.17
2022-12-08T14:19:19.184Z,15.43
2022-12-08T14:21:19.389Z,15.51
2022-12-08T14:22:51.862Z,17.00
2022-12-08T14:24:23.051Z,16.67
2022-12-08T14:28:05.228Z,17.95
2022-12-08T14:29:36.644Z,18.16
2022-12-08T14:31:19.313Z,18.14
2022-12-08T14:33:06.826Z,16.27
2022-12-08T14:34:38.209Z,17.30
2022-12-08T14:36:09.730Z,16.73
2022-12-08T14:37:41.009Z,17.53
2022-12-08T14:39:12.569Z,17.94
2022-12-08T14:40:44.199Z,17.25
2022-12-08T14:42:26.133Z,18.03
2022-12-08T14:43:57.424Z,18.24
2022-12-08T14:45:28.949Z,17.72
2022-12-08T14:47:05.352Z,18.36
2022-12-08T14:48:37.270Z,18.23
2022-12-08T14:50:08.610Z,17.97
2022-12-08T14:51:40.196Z,17.06
2022-12-08T14:53:12.033Z,17.92
2022-12-08T14:54:43.670Z,18.56
2022-12-08T14:58:17.262Z,17.99
2022-12-08T14:59:48.589Z,18.00
2022-12-08T15:01:20.302Z,16.62
2022-12-08T15:02:51.519Z,17.16
2022-12-08T15:04:22.702Z,17.26
2022-12-08T15:05:54.011Z,17.31
2022-12-08T15:07:25.346Z,17.32
2022-12-08T15:08:56.541Z,16.88
2022-12-08T15:10:27.729Z,17.01
2022-12-08T15:11:59.027Z,17.17
2022-12-08T15:13:30.243Z,16.29
2022-12-08T15:15:01.450Z,16.89
2022-12-08T15:16:32.700Z,17.39
2022-12-08T15:18:03.967Z,17.30
2022-12-08T15:19:35.353Z,18.20
2022-12-08T15:21:06.742Z,18.05
2022-12-08T15:22:37.938Z,17.67
2022-12-08T15:24:14.137Z,17.90
2022-12-08T15:25:45.770Z,18.62
2022-12-08T15:27:17.028Z,18.63
2022-12-08T15:28:48.260Z,18.14
2022-12-08T15:30:19.675Z,18.86
2022-12-08T15:31:51.106Z,19.76
2022-12-08T15:33:22.418Z,19.19
2022-12-08T15:34:53.727Z,19.28
2022-12-08T15:36:24.914Z,18.67
2022-12-08T15:38:01.255Z,18.79
2022-12-08T15:39:37.745Z,19.00
2022-12-08T15:41:14.659Z,18.68
2022-12-08T15:42:46.464Z,18.50
2022-12-08T15:44:17.970Z,19.08
2022-12-08T15:45:58.494Z,18.55
2022-12-08T15:47:30.775Z,17.73
2022-12-08T15:49:02.140Z,18.53
2022-12-08T15:50:33.438Z,17.90
2022-12-08T15:52:11.509Z,17.61
2022-12-08T15:53:43.460Z,17.42
2022-12-08T15:55:14.735Z,17.91
2022-12-08T15:57:18.409Z,18.31
2022-12-08T15:58:54.718Z,18.38
2022-12-08T16:00:51.068Z,18.79
2022-12-08T16:02:25.258Z,18.13
2022-12-08T16:06:44.297Z,18.79
2022-12-08T16:08:49.403Z,19.08
2022-12-08T16:10:35.432Z,19.15
2022-12-08T16:12:17.183Z,19.11
2022-12-08T16:13:57.141Z,19.92
2022-12-08T16:15:53.593Z,19.29
2022-12-08T16:17:30.466Z,19.71
2022-12-08T16:19:01.718Z,20.03
2022-12-08T16:21:05.154Z,20.02
2022-12-08T16:22:59.563Z,19.32
2022-12-08T16:24:39.203Z,20.43
2022-12-08T16:27:22.136Z,19.58
2022-12-08T16:29:06.774Z,19.97
2022-12-08T16:30:38.429Z,19.77
2022-12-08T16:32:09.980Z,20.44
2022-12-08T16:33:41.398Z,19.74
2022-12-08T16:35:12.988Z,20.18
2022-12-08T16:36:44.230Z,20.42
2022-12-08T16:38:16.176Z,20.48
2022-12-08T16:39:47.730Z,21.03
2022-12-08T16:41:20.254Z,21.52
2022-12-08T16:42:51.612Z,22.44
2022-12-08T16:44:23.278Z,22.50
2022-12-08T16:45:54.665Z,23.19
2022-12-08T16:47:25.946Z,23.40
2022-12-08T16:48:57.131Z,22.23
2022-12-08T16:50:28.743Z,21.49
2022-12-08T16:52:00.108Z,21.56
2022-12-08T16:53:31.604Z,21.31
2022-12-08T16:55:03.178Z,21.92
2022-12-08T16:56:34.699Z,21.14
2022-12-08T16:58:06.128Z,21.34
2022-12-08T16:59:37.799Z,21.72
2022-12-08T17:01:10.103Z,21.88
2022-12-08T17:02:42.926Z,24.41
2022-12-08T17:04:31.721Z,23.89
2022-12-08T17:06:03.454Z,24.59
2022-12-08T17:07:34.902Z,23.77
2022-12-08T17:09:06.510Z,21.83
2022-12-08T17:10:38.548Z,21.38
2022-12-08T17:12:10.168Z,20.77
2022-12-08T17:13:41.998Z,20.26
2022-12-08T17:15:14.244Z,20.42
2022-12-08T17:17:05.635Z,20.77
2022-12-08T17:18:36.978Z,20.65
2022-12-08T17:20:08.731Z,20.80
2022-12-08T17:21:46.584Z,21.38
2022-12-08T17:23:17.732Z,21.40
2022-12-08T17:24:49.054Z,20.56
2022-12-08T17:26:20.283Z,21.21
2022-12-08T17:27:51.801Z,21.59
2022-12-08T17:29:23.030Z,21.03
2022-12-08T17:30:54.269Z,20.22
2022-12-08T17:32:25.611Z,20.90
2022-12-08T17:33:57.205Z,20.83
2022-12-08T17:35:28.662Z,21.09
2022-12-08T17:37:01.375Z,20.86
2022-12-08T17:38:32.781Z,21.63
2022-12-08T17:40:14.397Z,21.35
2022-12-08T17:41:55.937Z,22.00
2022-12-08T17:43:27.358Z,23.02
2022-12-08T17:44:58.564Z,23.13
2022-12-08T17:46:29.854Z,23.08
2022-12-08T17:48:01.418Z,22.55
2022-12-08T17:49:32.607Z,23.03
2022-12-08T17:51:11.337Z,23.48
2022-12-08T17:52:43.660Z,22.86
2022-12-08T17:54:15.283Z,22.52
2022-12-08T17:55:47.216Z,22.18
2022-12-08T17:57:18.616Z,22.29
2022-12-08T17:58:54.536Z,23.49
2022-12-08T18:00:26.145Z,22.34
2022-12-08T18:01:57.771Z,22.88
2022-12-08T18:03:29.119Z,22.91
2022-12-08T18:05:00.395Z,22.81
2022-12-08T18:06:32.135Z,22.49
2022-12-08T18:08:03.666Z,22.95
2022-12-08T18:09:35.123Z,23.13
2022-12-08T18:11:06.565Z,22.73
2022-12-08T18:13:02.238Z,21.76
2022-12-08T18:14:33.572Z,21.56
2022-12-08T18:16:04.752Z,20.74
2022-12-08T18:17:35.983Z,20.98
2022-12-08T18:19:07.399Z,21.04
2022-12-08T18:20:38.735Z,21.18
2022-12-08T18:22:18.820Z,20.67
2022-12-08T18:23:54.798Z,19.24
2022-12-08T18:25:46.085Z,20.10
2022-12-08T18:27:30.330Z,19.86
2022-12-08T18:29:01.872Z,19.91
2022-12-08T18:31:13.109Z,21.12
2022-12-08T18:32:45.290Z,20.83
2022-12-08T18:34:49.933Z,20.56
2022-12-08T18:36:34.906Z,21.00
2022-12-08T18:38:20.888Z,20.99
2022-12-08T18:40:12.159Z,21.12
2022-12-08T18:42:03.055Z,20.82
2022-12-08T18:45:36.166Z,20.38
2022-12-08T18:47:14.150Z,20.16
2022-12-08T18:48:50.608Z,21.49
2022-12-08T18:50:26.917Z,21.83
2022-12-08T18:52:03.284Z,22.00
2022-12-08T18:53:34.664Z,22.56
2022-12-08T18:55:07.089Z,23.03
2022-12-08T18:56:49.183Z,22.80
2022-12-08T18:58:20.366Z,22.01
2022-12-08T18:59:51.963Z,22.27
2022-12-08T19:01:24.106Z,22.52
2022-12-08T19:02:55.897Z,21.58
2022-12-08T19:04:47.265Z,22.02
2022-12-08T19:06:19.937Z,22.13
2022-12-08T19:08:01.716Z,21.72
2022-12-08T19:10:09.356Z,22.37
2022-12-08T19:13:53.583Z,22.24
2022-12-08T19:15:25.331Z,21.80
2022-12-08T19:16:58.122Z,22.01
2022-12-08T19:19:11.806Z,22.94
2022-12-08T19:20:43.043Z,22.46
2022-12-08T19:22:46.952Z,22.32
2022-12-08T19:24:21.296Z,22.97
2022-12-08T19:26:12.513Z,23.09
2022-12-08T19:27:44.332Z,23.78
2022-12-08T19:29:16.085Z,24.03
2022-12-08T19:30:47.699Z,24.22
2022-12-08T19:32:19.071Z,24.10
2022-12-08T19:33:50.401Z,23.81
2022-12-08T19:35:21.816Z,23.85
2022-12-08T19:37:18.588Z,24.24
2022-12-08T19:38:50.133Z,23.76
2022-12-08T19:40:21.571Z,24.13
2022-12-08T19:41:52.880Z,23.79
2022-12-08T19:43:24.195Z,23.91
2022-12-08T19:44:55.407Z,24.09
2022-12-08T19:46:26.892Z,23.41
2022-12-08T19:47:58.610Z,24.03
2022-12-08T19:49:29.992Z,24.46
2022-12-08T19:51:01.397Z,24.10
2022-12-08T19:52:32.741Z,24.31
2022-12-08T19:54:04.081Z,24.68
2022-12-08T19:55:35.409Z,24.18
2022-12-08T19:57:06.799Z,24.22
2022-12-08T19:58:38.055Z,24.16
2022-12-08T20:00:09.717Z,24.52
2022-12-08T20:01:41.377Z,24.05
2022-12-08T20:03:13.112Z,27.87
2022-12-08T20:04:44.340Z,25.85
2022-12-08T20:06:15.528Z,27.24
2022-12-08T20:07:46.850Z,25.59
2022-12-08T20:10:11.598Z,25.08
2022-12-08T20:11:52.861Z,23.95
2022-12-08T20:13:37.232Z,23.11
2022-12-08T20:15:09.444Z,24.75
2022-12-08T20:16:54.674Z,22.93
2022-12-08T20:18:26.475Z,22.65
2022-12-08T20:20:06.995Z,23.32
2022-12-08T20:21:51.576Z,23.61
2022-12-08T20:23:23.413Z,23.68
2022-12-08T20:24:59.579Z,23.05
2022-12-08T20:26:48.300Z,22.51
2022-12-08T20:30:38.337Z,23.09
2022-12-08T20:32:10.569Z,24.29
2022-12-08T20:33:47.014Z,23.80
2022-12-08T20:35:18.274Z,24.30
2022-12-08T20:37:12.994Z,23.40
2022-12-08T20:38:50.035Z,22.84
2022-12-08T20:40:31.679Z,22.44